Time;durP1;ratioP1;P1;durP2;ratioP2;P2;SDS_P1;SDS_P2;PMS_P1;PMS_P2;Temp;Humidity;BMP_temperature;BMP_pressure;BME280_temperature;BME280_humidity;BME280_pressure;Samples;Min_cycle;Max_cycle;Signal;HPM_P1;HPM_P2
2023/03/09 00:02:16;;;;;;;17.55;12.98;;;3.70;99.90;;;;;;5092951;28;20274;-51
2023/03/09 00:04:43;;;;;;;20.50;14.00;;;3.80;99.90;;;;;;5092908;28;20209;-51
2023/03/09 00:07:10;;;;;;;19.25;14.25;;;3.60;99.90;;;;;;5092778;28;20204;-51
2023/03/09 00:09:36;;;;;;;21.80;15.07;;;3.20;99.90;;;;;;5092257;28;20644;-52
2023/03/09 00:12:04;;;;;;;18.08;14.30;;;3.70;99.90;;;;;;5092641;28;20198;-52
2023/03/09 00:14:30;;;;;;;19.38;13.25;;;3.80;99.90;;;;;;5092474;28;20186;-51
2023/03/09 00:16:57;;;;;;;23.05;15.80;;;3.60;99.90;;;;;;5092202;28;20195;-50
2023/03/09 00:19:27;;;;;;;21.02;15.10;;;3.20;99.90;;;;;;5092028;28;20218;-52
2023/03/09 00:21:55;;;;;;;21.13;15.10;;;3.60;99.90;;;;;;5092447;28;20252;-52
2023/03/09 00:24:26;;;;;;;20.83;14.68;;;3.70;99.90;;;;;;5092771;28;20197;-50
2023/03/09 00:26:55;;;;;;;22.45;14.15;;;3.70;99.90;;;;;;5092574;28;20199;-50
2023/03/09 00:29:23;;;;;;;22.95;16.30;;;3.60;99.90;;;;;;5075807;28;20224;-50
2023/03/09 00:31:49;;;;;;;21.25;15.25;;;3.80;99.90;;;;;;5076012;28;20202;-51
2023/03/09 00:34:16;;;;;;;19.80;13.70;;;3.60;99.90;;;;;;5076256;28;20603;-50
2023/03/09 00:36:45;;;;;;;23.00;16.15;;;3.50;99.90;;;;;;5093715;28;20202;-49
2023/03/09 00:39:14;;;;;;;22.40;15.90;;;3.80;99.90;;;;;;5093346;28;20218;-51
2023/03/09 00:41:40;;;;;;;22.30;16.08;;;3.50;99.90;;;;;;5092789;28;20214;-52
2023/03/09 00:44:08;;;;;;;20.83;15.98;;;3.20;99.90;;;;;;5092492;28;20190;-49
2023/03/09 00:46:35;;;;;;;20.75;15.63;;;3.50;99.90;;;;;;5092491;28;20197;-50
2023/03/09 00:49:03;;;;;;;22.52;15.68;;;3.60;99.90;;;;;;5092085;28;20198;-52
2023/03/09 00:51:30;;;;;;;23.55;16.45;;;3.50;99.90;;;;;;5092283;28;20201;-51
2023/03/09 00:53:58;;;;;;;21.85;15.13;;;3.40;99.90;;;;;;5092520;28;20194;-51
2023/03/09 00:56:27;;;;;;;22.83;16.88;;;3.00;99.90;;;;;;5074113;28;20722;-51
2023/03/09 00:58:55;;;;;;;22.58;17.13;;;3.30;99.90;;;;;;5091880;28;20232;-51
2023/03/09 01:01:22;;;;;;;24.00;17.10;;;3.40;99.90;;;;;;5073757;28;20681;-50
2023/03/09 01:03:49;;;;;;;24.08;15.73;;;3.60;99.90;;;;;;5092070;28;20561;-50
2023/03/09 01:06:16;;;;;;;19.67;14.75;;;3.40;99.90;;;;;;5073866;28;20198;-51
2023/03/09 01:08:45;;;;;;;21.85;15.80;;;3.70;99.90;;;;;;5073681;28;20194;-51
2023/03/09 01:11:15;;;;;;;23.00;15.60;;;3.30;99.90;;;;;;5091873;28;20221;-51
2023/03/09 01:13:42;;;;;;;23.33;16.00;;;3.30;99.90;;;;;;5091994;28;20187;-52
2023/03/09 01:16:09;;;;;;;24.48;16.48;;;3.50;99.90;;;;;;5073685;28;20222;-50
2023/03/09 01:18:37;;;;;;;23.63;15.80;;;3.40;99.90;;;;;;5073366;28;20198;-52
2023/03/09 01:21:04;;;;;;;25.98;16.40;;;3.50;99.90;;;;;;5073602;28;20601;-51
2023/03/09 01:23:31;;;;;;;19.70;14.82;;;3.60;99.90;;;;;;5073644;28;20202;-51
2023/03/09 01:25:57;;;;;;;21.98;16.17;;;3.50;99.90;;;;;;5091951;28;20655;-51
2023/03/09 01:28:25;;;;;;;22.85;16.67;;;3.40;99.90;;;;;;5095454;28;20201;-51
2023/03/09 01:30:53;;;;;;;23.38;16.67;;;3.50;99.90;;;;;;5077408;28;20224;-52
2023/03/09 01:33:20;;;;;;;24.60;17.42;;;3.30;99.90;;;;;;5077352;28;20209;-51
2023/03/09 01:35:47;;;;;;;25.70;18.45;;;3.00;99.90;;;;;;5077521;28;20562;-52
2023/03/09 01:38:14;;;;;;;22.20;15.77;;;3.40;99.90;;;;;;5095133;28;20195;-51
2023/03/09 01:40:45;;;;;;;26.27;17.83;;;3.30;99.90;;;;;;5077204;28;20235;-52
2023/03/09 01:43:34;;;;;;;24.92;16.38;;;3.40;99.90;;;;;;5077344;28;20229;-52
2023/03/09 01:46:38;;;;;;;27.20;19.75;;;3.60;99.90;;;;;;5077255;28;20206;-50
2023/03/09 01:49:20;;;;;;;24.02;16.77;;;3.70;99.90;;;;;;5095029;28;20214;-52
2023/03/09 01:51:52;;;;;;;25.05;16.45;;;3.50;99.90;;;;;;5077149;28;20226;-51
2023/03/09 01:54:23;;;;;;;23.67;17.58;;;3.40;99.90;;;;;;5095282;28;20205;-51
2023/03/09 01:56:55;;;;;;;27.10;18.45;;;3.20;99.90;;;;;;5095320;28;20558;-50
2023/03/09 01:59:28;;;;;;;24.08;17.52;;;3.40;99.90;;;;;;5076875;28;20246;-51
2023/03/09 02:01:55;;;;;;;24.95;17.38;;;3.20;99.90;;;;;;5076916;28;20441;-51
2023/03/09 02:04:29;;;;;;;23.13;16.42;;;3.30;99.90;;;;;;5077029;28;20622;-53
2023/03/09 02:06:56;;;;;;;24.83;17.20;;;3.60;99.90;;;;;;5077054;28;20297;-51
2023/03/09 02:09:30;;;;;;;22.10;16.45;;;3.40;99.90;;;;;;5076434;28;20276;-52
2023/03/09 02:11:59;;;;;;;28.50;18.30;;;3.30;99.90;;;;;;5077014;28;20720;-51
2023/03/09 02:14:29;;;;;;;27.00;16.73;;;3.10;99.90;;;;;;5076699;28;20229;-51
2023/03/09 02:16:56;;;;;;;23.48;16.48;;;2.80;99.90;;;;;;5076683;28;20298;-51
2023/03/09 02:19:34;;;;;;;28.13;18.90;;;3.40;99.90;;;;;;5075979;28;20227;-50
2023/03/09 02:22:00;;;;;;;29.10;17.70;;;3.10;99.90;;;;;;5094693;28;20604;-50
2023/03/09 02:24:36;;;;;;;30.63;18.55;;;2.60;99.90;;;;;;5076699;28;20204;-52
2023/03/09 02:27:15;;;;;;;29.45;19.85;;;3.30;99.90;;;;;;5076502;28;20230;-49
2023/03/09 02:29:43;;;;;;;26.38;18.23;;;3.50;99.90;;;;;;5076077;28;20318;-51
2023/03/09 02:32:10;;;;;;;25.67;17.38;;;2.70;99.90;;;;;;5094790;28;20614;-53
2023/03/09 02:34:37;;;;;;;25.73;17.83;;;3.40;99.90;;;;;;5076477;28;20201;-51
2023/03/09 02:37:03;;;;;;;25.80;17.75;;;3.30;99.90;;;;;;5076474;28;20202;-52
2023/03/09 02:39:37;;;;;;;27.05;18.35;;;3.30;99.90;;;;;;5075203;28;20615;-52
2023/03/09 02:42:06;;;;;;;30.75;20.90;;;3.20;99.90;;;;;;5076188;28;20672;-50
2023/03/09 02:44:35;;;;;;;31.17;20.65;;;3.30;99.90;;;;;;5094578;28;20674;-49
2023/03/09 02:47:02;;;;;;;30.65;19.88;;;3.50;99.90;;;;;;5076112;28;20195;-50
2023/03/09 02:49:37;;;;;;;27.08;19.38;;;3.40;99.90;;;;;;5075786;28;20218;-52
2023/03/09 02:52:05;;;;;;;28.13;19.73;;;3.10;99.90;;;;;;5075955;28;20569;-52
2023/03/09 02:54:32;;;;;;;28.35;19.70;;;3.20;99.90;;;;;;5094201;28;20552;-50
2023/03/09 02:56:59;;;;;;;27.65;19.17;;;3.20;99.90;;;;;;5076097;28;20206;-50
2023/03/09 02:59:26;;;;;;;27.95;19.85;;;3.40;99.90;;;;;;5093638;28;20579;-52
2023/03/09 03:01:55;;;;;;;28.48;19.95;;;3.30;99.90;;;;;;5075743;28;20596;-52
2023/03/09 03:04:22;;;;;;;29.25;19.08;;;3.00;99.90;;;;;;5093956;28;20528;-52
2023/03/09 03:06:50;;;;;;;27.95;18.77;;;3.20;99.90;;;;;;5075750;28;20206;-52
2023/03/09 03:09:17;;;;;;;28.58;18.90;;;3.10;99.90;;;;;;5075270;28;20203;-51
2023/03/09 03:11:44;;;;;;;28.90;18.27;;;2.50;99.90;;;;;;5075751;28;20203;-51
2023/03/09 03:14:10;;;;;;;29.60;19.35;;;3.20;99.90;;;;;;5093776;28;20190;-52
2023/03/09 03:16:37;;;;;;;34.38;18.65;;;3.10;99.90;;;;;;5075664;28;20292;-51
2023/03/09 03:19:06;;;;;;;26.27;17.85;;;2.90;99.90;;;;;;5074988;28;20674;-52
2023/03/09 03:21:36;;;;;;;28.23;19.23;;;3.00;99.90;;;;;;5075645;28;20230;-52
2023/03/09 03:24:04;;;;;;;28.38;16.65;;;3.00;99.90;;;;;;5075507;28;20264;-50
2023/03/09 03:26:32;;;;;;;23.35;15.30;;;3.20;99.90;;;;;;5075346;28;20207;-52
2023/03/09 03:29:05;;;;;;;24.55;14.90;;;3.20;99.90;;;;;;5075018;28;20323;-52
2023/03/09 03:31:32;;;;;;;25.52;17.60;;;2.40;99.90;;;;;;5075176;28;20217;-52
2023/03/09 03:33:59;;;;;;;28.45;17.33;;;3.10;99.90;;;;;;5075169;28;20256;-52
2023/03/09 03:36:29;;;;;;;26.33;17.33;;;3.10;99.90;;;;;;5075182;28;20198;-52
2023/03/09 03:38:56;;;;;;;24.85;15.60;;;3.00;99.90;;;;;;5093046;28;20201;-51
2023/03/09 03:41:23;;;;;;;27.17;17.45;;;3.00;99.90;;;;;;5074836;28;20228;-51
2023/03/09 03:43:52;;;;;;;21.25;15.23;;;3.10;99.90;;;;;;5075028;28;20198;-51
2023/03/09 03:46:19;;;;;;;23.95;15.85;;;2.40;99.90;;;;;;5074848;28;20659;-50
2023/03/09 03:48:46;;;;;;;26.30;16.30;;;2.70;99.90;;;;;;5074611;28;20309;-51
2023/03/09 03:51:16;;;;;;;24.35;16.63;;;2.60;99.90;;;;;;5074138;28;20275;-52
2023/03/09 03:53:47;;;;;;;28.98;16.25;;;2.80;99.90;;;;;;5074926;28;20209;-52
2023/03/09 03:56:14;;;;;;;24.05;16.00;;;2.70;99.90;;;;;;5074725;28;20230;-50
2023/03/09 03:58:43;;;;;;;30.27;17.52;;;2.70;99.90;;;;;;5074575;28;20194;-51
2023/03/09 04:01:10;;;;;;;24.90;15.63;;;3.00;99.90;;;;;;5074701;28;20649;-50
2023/03/09 04:03:37;;;;;;;26.15;17.00;;;2.70;99.90;;;;;;5074596;28;20195;-50
2023/03/09 04:06:04;;;;;;;28.42;18.27;;;2.20;99.90;;;;;;5074552;28;20202;-50
2023/03/09 04:08:32;;;;;;;24.52;17.20;;;2.80;99.90;;;;;;5091205;28;20248;-52
2023/03/09 04:11:05;;;;;;;26.33;17.35;;;2.60;99.90;;;;;;5074380;28;20245;-51
2023/03/09 04:13:32;;;;;;;26.65;16.80;;;2.70;99.90;;;;;;5092704;28;20201;-52
2023/03/09 04:15:59;;;;;;;25.90;17.33;;;2.60;99.90;;;;;;5074305;28;20198;-52
2023/03/09 04:18:25;;;;;;;26.17;17.98;;;2.30;99.90;;;;;;5074204;28;20198;-52
2023/03/09 04:20:53;;;;;;;26.05;16.85;;;2.60;99.90;;;;;;5074099;28;20317;-51
2023/03/09 04:23:20;;;;;;;28.65;18.33;;;2.00;99.90;;;;;;5074191;28;20559;-52
2023/03/09 04:25:57;;;;;;;27.25;18.17;;;2.40;99.90;;;;;;5074068;28;20199;-51
2023/03/09 04:28:30;;;;;;;32.55;20.08;;;2.50;99.90;;;;;;5073985;28;20229;-51
2023/03/09 04:30:58;;;;;;;28.15;18.83;;;2.50;99.90;;;;;;5074181;28;20214;-51
2023/03/09 04:33:27;;;;;;;27.88;19.83;;;2.60;99.90;;;;;;5074131;28;20259;-52
2023/03/09 04:35:54;;;;;;;29.58;19.75;;;1.90;99.90;;;;;;5074032;28;20230;-53
2023/03/09 04:38:26;;;;;;;28.42;19.15;;;2.10;99.90;;;;;;5073722;28;20256;-51
2023/03/09 04:40:53;;;;;;;28.08;18.85;;;2.60;99.90;;;;;;5073822;28;20264;-52
2023/03/09 04:43:20;;;;;;;35.33;21.08;;;2.50;99.90;;;;;;5073950;28;20203;-52
2023/03/09 04:45:48;;;;;;;30.25;20.95;;;2.50;99.90;;;;;;5073887;28;20252;-52
2023/03/09 04:48:15;;;;;;;28.92;21.50;;;2.40;99.90;;;;;;5073888;28;20682;-52
2023/03/09 04:50:41;;;;;;;31.33;20.25;;;2.40;99.90;;;;;;5091979;28;20206;-51
2023/03/09 04:53:09;;;;;;;33.85;22.70;;;2.50;99.90;;;;;;5074141;28;20620;-50
2023/03/09 04:55:38;;;;;;;31.08;22.17;;;2.60;99.90;;;;;;5073834;28;20206;-51
2023/03/09 04:58:09;;;;;;;30.33;22.20;;;2.00;99.90;;;;;;5073769;28;20309;-51
2023/03/09 05:00:36;;;;;;;30.95;20.65;;;2.60;99.90;;;;;;5074504;28;20740;-50
2023/03/09 05:03:05;;;;;;;32.45;21.52;;;2.50;99.90;;;;;;5077791;28;20279;-50
2023/03/09 05:05:33;;;;;;;35.22;23.00;;;2.10;99.90;;;;;;5078210;28;20681;-51
2023/03/09 05:08:01;;;;;;;28.92;21.27;;;2.60;99.90;;;;;;5078414;28;20222;-50
2023/03/09 05:10:29;;;;;;;37.03;23.50;;;2.70;99.90;;;;;;5077790;28;20309;-51
2023/03/09 05:12:58;;;;;;;29.77;21.42;;;2.70;99.90;;;;;;5077718;28;20198;-50
2023/03/09 05:15:27;;;;;;;31.30;20.85;;;2.60;99.90;;;;;;5077947;28;20241;-51
2023/03/09 05:17:54;;;;;;;29.83;20.25;;;2.60;99.90;;;;;;5077586;28;20289;-51
2023/03/09 05:20:24;;;;;;;28.02;19.77;;;2.10;99.90;;;;;;5077840;28;20230;-48
2023/03/09 05:22:57;;;;;;;28.60;20.90;;;2.60;99.90;;;;;;5077747;28;20596;-49
2023/03/09 05:25:24;;;;;;;29.00;20.83;;;2.80;99.90;;;;;;5077797;28;20221;-49
2023/03/09 05:27:52;;;;;;;31.75;20.80;;;2.10;99.90;;;;;;5096202;28;20186;-51
2023/03/09 05:30:20;;;;;;;28.15;20.52;;;2.80;99.90;;;;;;5077430;28;20222;-51
2023/03/09 05:32:46;;;;;;;29.15;21.20;;;2.60;99.90;;;;;;5077730;28;20575;-50
2023/03/09 05:35:13;;;;;;;28.33;20.80;;;2.80;99.90;;;;;;5080729;28;20202;-49
2023/03/09 05:37:41;;;;;;;27.48;20.30;;;2.20;99.90;;;;;;5084364;28;20222;-49
2023/03/09 05:40:17;;;;;;;30.15;21.08;;;2.60;99.90;;;;;;5085195;28;20252;-50
2023/03/09 05:42:46;;;;;;;27.95;19.90;;;2.70;99.90;;;;;;5085240;28;20687;-50
2023/03/09 05:45:13;;;;;;;27.77;20.75;;;2.10;99.90;;;;;;5101233;28;20217;-50
2023/03/09 05:47:40;;;;;;;26.77;19.50;;;2.60;99.90;;;;;;5096761;28;20199;-49
2023/03/09 05:50:08;;;;;;;28.75;20.40;;;2.30;99.90;;;;;;5095254;28;20278;-50
2023/03/09 05:52:35;;;;;;;26.52;19.85;;;2.60;99.90;;;;;;5077152;28;20289;-50
2023/03/09 05:55:03;;;;;;;30.60;19.08;;;2.90;99.90;;;;;;5077005;28;20202;-51
2023/03/09 05:57:31;;;;;;;32.30;20.48;;;2.60;99.90;;;;;;5076959;28;20203;-52
2023/03/09 05:59:58;;;;;;;29.02;19.40;;;2.80;99.90;;;;;;5076593;28;20309;-50
2023/03/09 06:02:26;;;;;;;27.10;19.08;;;2.60;99.90;;;;;;5076851;28;20314;-49
2023/03/09 06:04:53;;;;;;;28.20;19.20;;;2.60;99.90;;;;;;5095044;28;20194;-51
2023/03/09 06:07:20;;;;;;;28.08;19.75;;;2.70;99.90;;;;;;5076950;28;20300;-50
2023/03/09 06:09:49;;;;;;;33.72;19.40;;;2.80;99.90;;;;;;5076377;28;20218;-51
2023/03/09 06:12:25;;;;;;;27.33;20.50;;;2.70;99.90;;;;;;5076700;28;20302;-51
2023/03/09 06:14:54;;;;;;;27.33;19.30;;;2.60;99.90;;;;;;5076177;28;20696;-51
2023/03/09 06:17:25;;;;;;;29.38;19.58;;;2.80;99.90;;;;;;5076532;28;20198;-50
2023/03/09 06:19:53;;;;;;;29.48;21.55;;;2.60;99.90;;;;;;5076169;28;20320;-51
2023/03/09 06:22:21;;;;;;;29.70;19.40;;;2.70;99.90;;;;;;5076283;28;20214;-50
2023/03/09 06:24:50;;;;;;;24.95;19.38;;;2.70;99.90;;;;;;5076332;28;20255;-50
2023/03/09 06:27:17;;;;;;;23.77;19.08;;;2.60;99.90;;;;;;5076224;28;20256;-50
2023/03/09 06:29:45;;;;;;;29.30;18.77;;;2.80;99.90;;;;;;5094488;28;20250;-49
2023/03/09 06:32:12;;;;;;;27.70;20.10;;;2.90;99.90;;;;;;5076676;28;20365;-50
2023/03/09 06:34:40;;;;;;;28.38;19.67;;;2.90;99.90;;;;;;5075927;28;20207;-51
2023/03/09 06:37:10;;;;;;;25.13;18.98;;;2.60;99.90;;;;;;5076104;28;20209;-51
2023/03/09 06:39:39;;;;;;;24.55;18.52;;;2.80;99.90;;;;;;5093705;28;20679;-51
2023/03/09 06:42:06;;;;;;;25.63;18.40;;;3.00;99.90;;;;;;5075587;28;20241;-50
2023/03/09 06:44:42;;;;;;;26.58;18.80;;;2.80;99.90;;;;;;5076030;28;20276;-50
2023/03/09 06:47:10;;;;;;;26.13;18.58;;;3.00;99.90;;;;;;5075875;28;20194;-51
2023/03/09 06:49:38;;;;;;;25.52;17.15;;;2.80;99.90;;;;;;5093720;28;20206;-52
2023/03/09 06:52:09;;;;;;;27.45;18.48;;;3.00;99.90;;;;;;5075765;28;20281;-52
2023/03/09 06:54:36;;;;;;;24.23;17.40;;;3.10;99.90;;;;;;5075861;28;20194;-51
2023/03/09 06:57:11;;;;;;;25.02;17.77;;;2.90;99.90;;;;;;5075166;28;20197;-51
2023/03/09 06:59:40;;;;;;;24.30;19.75;;;2.80;99.90;;;;;;5093834;28;20392;-52
2023/03/09 07:02:06;;;;;;;26.58;18.55;;;3.00;99.90;;;;;;5075358;28;20229;-52
2023/03/09 07:04:34;;;;;;;23.25;17.80;;;3.20;99.90;;;;;;5075417;28;20202;-51
2023/03/09 07:07:01;;;;;;;20.20;16.23;;;2.80;99.90;;;;;;5093431;28;20616;-51
2023/03/09 07:09:28;;;;;;;23.55;16.90;;;3.40;99.90;;;;;;5093323;28;20303;-49
2023/03/09 07:11:54;;;;;;;22.65;16.90;;;3.30;99.90;;;;;;5075245;28;20605;-53
2023/03/09 07:14:21;;;;;;;20.85;16.85;;;3.00;99.90;;;;;;5093246;28;20569;-51
2023/03/09 07:16:51;;;;;;;21.83;15.55;;;3.00;99.90;;;;;;5093583;28;20655;-51
2023/03/09 07:19:18;;;;;;;19.15;15.30;;;2.90;99.90;;;;;;5092877;28;20198;-52
2023/03/09 07:21:46;;;;;;;19.45;15.70;;;3.30;99.90;;;;;;5093363;28;20206;-51
2023/03/09 07:24:13;;;;;;;20.50;15.43;;;3.10;99.90;;;;;;5093127;28;20218;-52
2023/03/09 07:26:40;;;;;;;20.58;15.85;;;3.30;99.90;;;;;;5093122;28;20217;-53
2023/03/09 07:29:07;;;;;;;20.70;15.73;;;3.40;99.90;;;;;;5092799;28;20319;-52
2023/03/09 07:31:34;;;;;;;17.90;15.40;;;3.40;99.90;;;;;;5093057;28;20660;-51
2023/03/09 07:34:00;;;;;;;17.38;14.60;;;3.40;99.90;;;;;;5093011;28;20636;-52
2023/03/09 07:36:27;;;;;;;19.15;14.90;;;2.50;99.90;;;;;;5092960;28;20203;-51
2023/03/09 07:38:55;;;;;;;21.92;17.30;;;3.00;99.90;;;;;;5092541;28;20659;-51
2023/03/09 07:41:22;;;;;;;17.70;15.60;;;3.20;99.90;;;;;;5092842;28;20699;-52
2023/03/09 07:43:49;;;;;;;18.98;14.30;;;2.70;99.90;;;;;;5092821;28;20238;-52
2023/03/09 07:46:21;;;;;;;25.40;16.63;;;3.60;99.90;;;;;;5074503;28;20285;-52
2023/03/09 07:48:47;;;;;;;20.85;16.23;;;3.10;99.90;;;;;;5073893;28;20198;-52
2023/03/09 07:51:14;;;;;;;19.20;14.65;;;3.40;99.90;;;;;;5092699;28;20210;-50
2023/03/09 07:53:41;;;;;;;18.17;14.82;;;3.40;99.90;;;;;;5092404;28;20227;-51
2023/03/09 07:56:09;;;;;;;19.05;15.68;;;3.60;99.90;;;;;;5092226;28;20638;-51
2023/03/09 07:58:38;;;;;;;17.83;13.80;;;3.20;99.90;;;;;;5092082;28;20208;-51
2023/03/09 08:01:06;;;;;;;16.67;14.98;;;3.00;99.90;;;;;;5092672;28;20218;-51
2023/03/09 08:03:35;;;;;;;18.75;14.60;;;3.70;99.90;;;;;;5092732;28;20314;-51
2023/03/09 08:06:05;;;;;;;18.00;14.32;;;3.80;99.90;;;;;;5092421;28;20232;-51
2023/03/09 08:08:33;;;;;;;20.23;14.63;;;3.70;99.90;;;;;;5092207;28;20198;-51
2023/03/09 08:11:00;;;;;;;16.10;14.40;;;3.80;99.90;;;;;;5092210;28;20211;-50
2023/03/09 08:13:28;;;;;;;20.55;15.35;;;3.80;99.90;;;;;;5092110;28;20191;-50
2023/03/09 08:15:55;;;;;;;17.35;15.50;;;3.90;99.90;;;;;;5073968;28;20206;-51
2023/03/09 08:18:21;;;;;;;20.98;15.77;;;3.90;99.90;;;;;;5092077;28;20191;-51
2023/03/09 08:20:48;;;;;;;21.27;14.98;;;3.90;99.90;;;;;;5092296;28;20614;-51
2023/03/09 08:23:15;;;;;;;19.38;17.23;;;3.60;99.90;;;;;;5091957;28;20218;-52
2023/03/09 08:25:42;;;;;;;18.05;15.38;;;3.80;99.90;;;;;;5091602;28;20194;-51
2023/03/09 08:28:10;;;;;;;21.25;16.50;;;3.30;99.90;;;;;;5091399;28;20244;-50
2023/03/09 08:30:38;;;;;;;20.83;15.10;;;3.90;99.90;;;;;;5073175;28;20237;-50
2023/03/09 08:33:05;;;;;;;19.73;16.85;;;3.90;99.90;;;;;;5073460;28;20573;-51
2023/03/09 08:35:32;;;;;;;22.25;15.23;;;4.10;99.90;;;;;;5091518;28;20198;-51
2023/03/09 08:37:59;;;;;;;20.38;17.35;;;3.70;99.90;;;;;;5091541;28;20300;-50
2023/03/09 08:40:26;;;;;;;21.42;16.50;;;3.70;99.90;;;;;;5091666;28;20614;-50
2023/03/09 08:42:52;;;;;;;20.50;16.85;;;3.50;99.90;;;;;;5091532;28;20309;-50
2023/03/09 08:45:19;;;;;;;24.35;18.98;;;3.90;99.90;;;;;;5091942;28;20191;-50
2023/03/09 08:47:48;;;;;;;22.00;18.88;;;3.80;99.90;;;;;;5073403;28;20198;-50
2023/03/09 08:50:14;;;;;;;23.83;18.90;;;3.60;99.90;;;;;;5091035;28;20272;-50
2023/03/09 08:52:41;;;;;;;24.63;18.98;;;3.80;99.90;;;;;;5091542;28;20603;-49
2023/03/09 08:55:11;;;;;;;23.10;17.75;;;3.80;99.90;;;;;;5091383;28;20267;-51
2023/03/09 08:57:37;;;;;;;25.42;19.60;;;3.70;99.90;;;;;;5091452;28;20195;-50
2023/03/09 09:00:08;;;;;;;31.38;20.48;;;3.70;99.90;;;;;;5091090;28;20725;-50
2023/03/09 09:02:35;;;;;;;23.80;18.98;;;3.60;99.90;;;;;;5091278;28;20268;-50
2023/03/09 09:05:03;;;;;;;24.05;20.33;;;3.60;99.90;;;;;;5091607;28;20269;-51
2023/03/09 09:07:30;;;;;;;22.08;18.67;;;3.80;99.90;;;;;;5091723;28;20660;-50
2023/03/09 09:09:58;;;;;;;24.02;17.88;;;3.60;99.90;;;;;;5091052;28;20214;-50
2023/03/09 09:12:25;;;;;;;23.23;18.85;;;3.90;99.90;;;;;;5073690;28;20198;-51
2023/03/09 09:14:52;;;;;;;25.33;20.63;;;4.10;99.90;;;;;;5091686;28;20577;-50
2023/03/09 09:17:19;;;;;;;27.73;20.98;;;3.80;99.90;;;;;;5091516;28;20212;-50
2023/03/09 09:19:45;;;;;;;24.65;18.40;;;3.30;99.90;;;;;;5090883;28;20237;-50
2023/03/09 09:22:13;;;;;;;25.77;18.58;;;3.70;99.90;;;;;;5091711;28;20199;-50
2023/03/09 09:24:40;;;;;;;21.27;18.50;;;3.80;99.90;;;;;;5092048;28;20667;-49
2023/03/09 09:27:08;;;;;;;25.90;20.75;;;4.00;99.90;;;;;;5091469;28;20206;-51
2023/03/09 09:29:35;;;;;;;21.52;18.73;;;3.90;99.90;;;;;;5072993;28;20215;-50
2023/03/09 09:32:03;;;;;;;24.50;20.35;;;3.80;99.90;;;;;;5087386;28;20203;-50
2023/03/09 09:34:32;;;;;;;30.13;20.63;;;3.80;99.90;;;;;;5059505;28;20195;-50
2023/03/09 09:37:00;;;;;;;28.25;20.05;;;3.90;99.90;;;;;;5075467;28;20282;-51
2023/03/09 09:39:28;;;;;;;24.17;20.15;;;3.00;99.90;;;;;;5079289;28;20321;-52
2023/03/09 09:41:57;;;;;;;24.58;20.67;;;3.80;99.90;;;;;;5086336;28;20199;-50
2023/03/09 09:44:29;;;;;;;28.52;20.17;;;3.90;99.90;;;;;;5080494;28;20225;-51
2023/03/09 09:46:59;;;;;;;24.55;20.35;;;4.00;99.90;;;;;;5090666;28;20197;-51
2023/03/09 09:49:29;;;;;;;25.80;19.70;;;3.60;99.90;;;;;;5091332;28;20237;-53
2023/03/09 09:52:16;;;;;;;23.20;19.48;;;4.00;99.90;;;;;;5090403;28;20272;-51
2023/03/09 09:54:52;;;;;;;25.42;20.58;;;3.90;99.90;;;;;;5094587;28;20206;-51
2023/03/09 09:57:22;;;;;;;27.85;22.85;;;3.50;99.90;;;;;;5084182;28;20845;-51
2023/03/09 09:59:55;;;;;;;22.77;19.90;;;3.50;99.90;;;;;;5055835;28;20245;-51
2023/03/09 10:02:40;;;;;;;28.83;20.55;;;3.90;99.90;;;;;;5061798;28;20195;-50
2023/03/09 10:05:16;;;;;;;27.33;21.10;;;4.20;99.90;;;;;;5084943;28;20477;-50
2023/03/09 10:07:43;;;;;;;27.33;20.33;;;4.30;99.90;;;;;;5088853;28;20633;-50
2023/03/09 10:10:18;;;;;;;25.73;19.90;;;4.00;99.90;;;;;;5092827;28;20632;-51
2023/03/09 10:12:46;;;;;;;25.00;20.70;;;4.20;99.90;;;;;;5076477;28;20263;-51
2023/03/09 10:15:18;;;;;;;21.70;18.15;;;4.00;99.90;;;;;;5070999;28;20728;-50
2023/03/09 10:17:48;;;;;;;24.00;19.13;;;4.00;99.90;;;;;;5090828;28;20217;-50
2023/03/09 10:20:21;;;;;;;25.65;20.25;;;4.00;99.90;;;;;;5093800;28;20238;-50
2023/03/09 10:22:50;;;;;;;25.45;20.52;;;4.10;99.90;;;;;;5086820;28;20725;-50
2023/03/09 10:25:21;;;;;;;30.85;20.17;;;4.10;99.90;;;;;;5092480;28;20268;-50
2023/03/09 10:27:56;;;;;;;28.80;21.60;;;3.60;99.90;;;;;;5088363;28;20202;-51
2023/03/09 10:30:36;;;;;;;24.15;18.60;;;4.30;99.90;;;;;;5090368;28;20240;-50
2023/03/09 10:33:06;;;;;;;25.50;20.08;;;4.30;99.90;;;;;;5075749;28;20868;-51
2023/03/09 10:35:40;;;;;;;25.63;20.25;;;4.40;99.90;;;;;;5080298;28;20203;-51
2023/03/09 10:38:11;;;;;;;27.67;18.70;;;4.40;99.90;;;;;;5055749;28;20702;-51
2023/03/09 10:40:43;;;;;;;25.02;21.25;;;4.30;99.90;;;;;;5084470;28;20218;-51
2023/03/09 10:43:18;;;;;;;21.92;19.00;;;4.30;99.90;;;;;;5092883;28;20626;-50
2023/03/09 10:45:44;;;;;;;23.38;18.23;;;4.20;99.90;;;;;;5059327;28;20207;-50
2023/03/09 10:48:20;;;;;;;26.30;21.30;;;4.30;99.90;;;;;;5076284;28;20257;-51
2023/03/09 10:50:56;;;;;;;27.10;19.83;;;4.60;99.90;;;;;;5089596;28;20225;-50
2023/03/09 10:53:34;;;;;;;25.63;22.85;;;4.40;99.90;;;;;;5088011;28;20469;-52
2023/03/09 10:56:13;;;;;;;27.13;20.23;;;4.50;99.90;;;;;;5086140;28;20198;-52
2023/03/09 10:58:40;;;;;;;23.23;18.95;;;4.80;99.90;;;;;;5056526;28;20229;-51
2023/03/09 11:01:21;;;;;;;24.20;20.02;;;4.50;99.90;;;;;;5061890;28;20708;-50
2023/03/09 11:03:48;;;;;;;24.25;19.88;;;4.50;99.90;;;;;;5073418;28;20219;-51
2023/03/09 11:06:34;;;;;;;24.40;19.13;;;4.30;99.90;;;;;;5093293;28;20687;-52
2023/03/09 11:09:08;;;;;;;23.02;19.10;;;4.60;99.90;;;;;;5113638;28;20226;-52
2023/03/09 11:11:38;;;;;;;25.63;20.05;;;4.50;99.90;;;;;;5103909;28;20206;-51
2023/03/09 11:14:05;;;;;;;27.00;20.55;;;4.30;99.90;;;;;;5094875;28;20194;-51
2023/03/09 11:16:36;;;;;;;26.90;20.50;;;4.30;99.90;;;;;;5092215;28;20201;-50
2023/03/09 11:19:12;;;;;;;24.38;19.95;;;4.30;99.90;;;;;;5080074;28;20644;-52
2023/03/09 11:21:43;;;;;;;24.88;20.55;;;4.30;99.90;;;;;;5077068;28;20205;-51
2023/03/09 11:24:13;;;;;;;26.20;21.50;;;4.40;99.90;;;;;;5093555;28;20577;-50
2023/03/09 11:26:43;;;;;;;28.23;23.63;;;3.80;99.90;;;;;;5092456;28;20925;-50
2023/03/09 11:29:21;;;;;;;25.95;21.02;;;4.40;99.90;;;;;;5092734;28;20203;-53
2023/03/09 11:31:48;;;;;;;27.20;21.90;;;4.30;99.90;;;;;;5093003;28;20202;-50
2023/03/09 11:34:20;;;;;;;27.20;20.92;;;3.90;99.90;;;;;;5086489;28;20687;-50
2023/03/09 11:36:52;;;;;;;27.70;23.73;;;4.70;99.90;;;;;;5071949;28;20429;-50
2023/03/09 11:39:24;;;;;;;26.70;23.40;;;5.10;99.90;;;;;;5075827;28;20202;-50
2023/03/09 11:41:54;;;;;;;27.60;22.88;;;4.90;99.90;;;;;;5090617;28;20774;-53
2023/03/09 11:44:26;;;;;;;27.75;22.20;;;4.80;99.90;;;;;;5072799;28;20219;-51
2023/03/09 11:46:57;;;;;;;27.33;21.70;;;4.60;99.90;;;;;;5084921;28;20545;-50
2023/03/09 11:49:28;;;;;;;27.15;20.77;;;4.70;99.90;;;;;;5071749;28;20212;-50
2023/03/09 11:51:56;;;;;;;29.25;22.65;;;4.80;99.90;;;;;;5092379;28;20207;-50
2023/03/09 11:54:28;;;;;;;32.20;22.45;;;4.90;99.90;;;;;;5092861;28;20202;-50
2023/03/09 11:56:59;;;;;;;27.23;24.20;;;4.90;99.90;;;;;;5081138;28;20450;-52
2023/03/09 11:59:33;;;;;;;28.48;23.17;;;4.40;99.90;;;;;;5076772;28;20230;-51
2023/03/09 12:02:02;;;;;;;30.30;23.13;;;4.50;99.90;;;;;;5090519;28;20194;-51
2023/03/09 12:04:29;;;;;;;25.40;21.60;;;4.90;99.90;;;;;;5092540;28;20601;-51
2023/03/09 12:07:00;;;;;;;26.92;22.35;;;4.90;99.90;;;;;;5091709;28;20285;-50
2023/03/09 12:09:34;;;;;;;32.55;23.08;;;4.90;99.90;;;;;;5091331;28;20265;-51
2023/03/09 12:12:12;;;;;;;28.92;23.98;;;4.90;99.90;;;;;;5091534;28;20306;-51
2023/03/09 12:14:43;;;;;;;29.85;23.63;;;5.20;99.90;;;;;;5092278;28;20214;-50
2023/03/09 12:17:18;;;;;;;28.25;23.65;;;4.20;99.90;;;;;;5080258;28;20198;-50
2023/03/09 12:19:48;;;;;;;26.58;22.58;;;4.90;99.90;;;;;;5091858;28;20217;-50
2023/03/09 12:22:18;;;;;;;29.08;22.52;;;4.70;99.90;;;;;;5079126;28;20211;-51
2023/03/09 12:24:46;;;;;;;27.92;23.13;;;4.60;99.90;;;;;;5079340;28;20301;-50
2023/03/09 12:27:19;;;;;;;28.52;23.38;;;4.50;99.90;;;;;;5091946;28;20203;-49
2023/03/09 12:29:47;;;;;;;27.42;22.77;;;4.60;99.90;;;;;;5091529;28;20221;-50
2023/03/09 12:32:40;;;;;;;30.40;22.98;;;4.00;99.90;;;;;;5092212;28;20241;-50
2023/03/09 12:35:30;;;;;;;29.83;25.38;;;4.30;99.90;;;;;;5074277;28;20218;-51
2023/03/09 12:38:06;;;;;;;29.83;23.35;;;4.50;99.90;;;;;;5059539;28;20293;-51
2023/03/09 12:40:38;;;;;;;28.98;23.35;;;4.60;99.90;;;;;;5087368;28;20240;-50
2023/03/09 12:43:53;;;;;;;32.50;23.48;;;4.40;99.90;;;;;;5088059;28;20194;-50
2023/03/09 12:46:57;;;;;;;32.20;24.80;;;4.30;99.90;;;;;;5085109;28;20208;-50
2023/03/09 12:49:29;;;;;;;32.90;23.40;;;4.80;99.90;;;;;;5091016;28;20556;-49